createdAt,value
2022-11-18T00:01:22.787Z,2.40
2022-11-18T00:03:50.669Z,2.40
2022-11-18T00:06:23.517Z,2.30
2022-11-18T00:08:51.385Z,2.30
2022-11-18T00:11:38.904Z,2.30
2022-11-18T00:14:19.011Z,2.30
2022-11-18T00:16:48.185Z,2.30
2022-11-18T00:19:15.851Z,2.40
2022-11-18T00:21:43.018Z,2.40
2022-11-18T00:24:10.024Z,2.30
2022-11-18T00:26:36.986Z,2.30
2022-11-18T00:29:04.134Z,2.30
2022-11-18T00:31:31.047Z,2.20
2022-11-18T00:33:57.951Z,2.30
2022-11-18T00:36:24.872Z,2.30
2022-11-18T00:38:51.710Z,2.30
2022-11-18T00:41:21.156Z,2.20
2022-11-18T00:43:47.992Z,2.20
2022-11-18T00:46:15.054Z,2.20
2022-11-18T00:48:41.921Z,2.20
2022-11-18T00:51:13.987Z,2.20
2022-11-18T00:53:41.065Z,2.30
2022-11-18T00:56:08.900Z,2.20
2022-11-18T00:58:38.640Z,2.20
2022-11-18T01:01:06.114Z,2.20
2022-11-18T01:03:32.965Z,2.10
2022-11-18T01:05:59.811Z,2.10
2022-11-18T01:08:26.704Z,2.10
2022-11-18T01:10:53.823Z,2.10
2022-11-18T01:13:23.612Z,2.10
2022-11-18T01:15:53.001Z,2.10
2022-11-18T01:18:23.139Z,2.10
2022-11-18T01:20:50.167Z,2.10
2022-11-18T01:23:19.682Z,2.10
2022-11-18T01:25:48.760Z,2.10
2022-11-18T01:28:23.038Z,2.10
2022-11-18T01:30:50.695Z,2.10
2022-11-18T01:33:17.757Z,2.10
2022-11-18T01:35:45.049Z,2.00
2022-11-18T01:38:14.067Z,2.00
2022-11-18T01:40:41.945Z,2.00
2022-11-18T01:43:14.268Z,2.00
2022-11-18T01:45:42.796Z,2.00
2022-11-18T01:48:09.607Z,1.90
2022-11-18T01:50:42.481Z,2.00
2022-11-18T01:53:14.960Z,2.00
2022-11-18T01:55:46.263Z,1.90
2022-11-18T01:58:30.843Z,1.90
2022-11-18T02:00:58.696Z,1.90
2022-11-18T02:03:26.907Z,1.90
2022-11-18T02:05:55.002Z,1.80
2022-11-18T02:08:22.599Z,1.80
2022-11-18T02:10:49.459Z,1.80
2022-11-18T02:13:17.057Z,1.70
2022-11-18T02:15:53.429Z,1.70
2022-11-18T02:18:32.012Z,1.80
2022-11-18T02:21:27.112Z,1.80
2022-11-18T02:24:23.409Z,1.70
2022-11-18T02:26:57.870Z,1.70
2022-11-18T02:29:30.883Z,1.60
2022-11-18T02:32:02.127Z,1.70
2022-11-18T02:34:51.215Z,1.70
2022-11-18T02:37:47.153Z,1.60
2022-11-18T02:40:28.755Z,1.70
2022-11-18T02:43:01.785Z,1.60
2022-11-18T02:45:30.394Z,1.60
2022-11-18T02:48:02.108Z,1.50
2022-11-18T02:50:30.688Z,1.50
2022-11-18T02:53:01.189Z,1.50
2022-11-18T02:55:31.476Z,1.50
2022-11-18T02:58:00.569Z,1.40
2022-11-18T03:00:27.664Z,1.40
2022-11-18T03:02:54.537Z,1.40
2022-11-18T03:05:46.564Z,1.40
2022-11-18T03:08:20.335Z,1.40
2022-11-18T03:11:01.461Z,1.50
2022-11-18T03:13:39.375Z,1.40
2022-11-18T03:16:09.427Z,1.40
2022-11-18T03:18:52.692Z,1.30
2022-11-18T03:21:51.422Z,1.50
2022-11-18T03:24:29.509Z,1.40
2022-11-18T03:27:07.828Z,1.40
2022-11-18T03:29:41.082Z,1.30
2022-11-18T03:32:16.299Z,1.30
2022-11-18T03:34:49.797Z,1.30
2022-11-18T03:37:19.658Z,1.30
2022-11-18T03:40:02.024Z,1.20
2022-11-18T03:42:43.261Z,1.30
2022-11-18T03:45:16.253Z,1.20
2022-11-18T03:47:52.702Z,1.20
2022-11-18T03:50:26.381Z,1.20
2022-11-18T03:52:54.744Z,1.20
2022-11-18T03:55:26.152Z,1.20
2022-11-18T03:58:21.534Z,1.10
2022-11-18T04:00:52.769Z,1.20
2022-11-18T04:03:19.706Z,1.10
2022-11-18T04:05:51.507Z,1.10
2022-11-18T04:08:30.744Z,1.10
2022-11-18T04:11:40.193Z,1.10
2022-11-18T04:14:08.417Z,1.00
2022-11-18T04:16:43.150Z,1.00
2022-11-18T04:19:10.427Z,1.00
2022-11-18T04:21:37.479Z,1.00
2022-11-18T04:24:04.407Z,1.00
2022-11-18T04:26:31.610Z,1.00
2022-11-18T04:28:58.466Z,1.00
2022-11-18T04:31:25.227Z,0.90
2022-11-18T04:33:52.071Z,1.00
2022-11-18T04:36:19.914Z,0.90
2022-11-18T04:38:46.779Z,0.90
2022-11-18T04:41:13.626Z,0.90
2022-11-18T04:43:41.500Z,0.80
2022-11-18T04:46:08.551Z,0.80
2022-11-18T04:48:35.345Z,0.80
2022-11-18T04:51:05.538Z,0.80
2022-11-18T04:53:32.463Z,0.70
2022-11-18T04:56:06.961Z,0.70
2022-11-18T04:58:33.808Z,0.70
2022-11-18T05:01:00.670Z,0.80
2022-11-18T05:03:27.500Z,0.80
2022-11-18T05:05:54.341Z,0.80
2022-11-18T05:08:21.381Z,0.70
2022-11-18T05:10:48.328Z,0.70
2022-11-18T05:13:15.147Z,0.70
2022-11-18T05:15:41.931Z,0.70
2022-11-18T05:18:11.311Z,0.80
2022-11-18T05:20:41.510Z,0.80
2022-11-18T05:23:08.691Z,0.80
2022-11-18T05:25:35.955Z,0.80
2022-11-18T05:28:03.013Z,0.80
2022-11-18T05:30:29.958Z,0.80
2022-11-18T05:32:56.769Z,0.70
2022-11-18T05:35:23.616Z,0.70
2022-11-18T05:37:50.469Z,0.70
2022-11-18T05:40:17.721Z,0.70
2022-11-18T05:43:03.333Z,0.70
2022-11-18T05:45:30.251Z,0.70
2022-11-18T05:48:01.098Z,0.70
2022-11-18T05:50:28.117Z,0.70
2022-11-18T05:53:02.076Z,0.60
2022-11-18T05:55:47.721Z,0.60
2022-11-18T05:58:14.663Z,0.60
2022-11-18T06:00:41.776Z,0.60
2022-11-18T06:03:30.915Z,0.60
2022-11-18T06:06:03.563Z,0.50
2022-11-18T06:08:36.040Z,0.60
2022-11-18T06:11:03.150Z,0.50
2022-11-18T06:13:36.202Z,0.40
2022-11-18T06:16:03.511Z,0.40
2022-11-18T06:18:32.581Z,0.40
2022-11-18T06:21:03.457Z,0.40
2022-11-18T06:23:35.530Z,0.40
2022-11-18T06:26:02.499Z,0.50
2022-11-18T06:28:30.279Z,0.50
2022-11-18T06:30:57.159Z,0.50
2022-11-18T06:33:23.910Z,0.50
2022-11-18T06:35:50.847Z,0.50
2022-11-18T06:38:17.569Z,0.50
2022-11-18T06:40:44.720Z,0.50
2022-11-18T06:43:30.748Z,0.40
2022-11-18T06:46:20.663Z,0.40
2022-11-18T06:48:48.032Z,0.40
2022-11-18T06:51:14.956Z,0.50
2022-11-18T06:53:41.854Z,0.40
2022-11-18T06:56:12.382Z,0.40
2022-11-18T06:58:39.462Z,0.40
2022-11-18T07:01:34.955Z,0.30
2022-11-18T07:04:02.205Z,0.30
2022-11-18T07:06:33.651Z,0.20
2022-11-18T07:09:02.550Z,0.20
2022-11-18T07:11:29.817Z,0.20
2022-11-18T07:13:56.809Z,0.20
2022-11-18T07:16:25.408Z,0.20
2022-11-18T07:18:53.778Z,0.30
2022-11-18T07:21:28.984Z,0.20
2022-11-18T07:23:56.844Z,0.20
2022-11-18T07:26:24.050Z,0.20
2022-11-18T07:28:50.838Z,0.30
2022-11-18T07:31:19.651Z,0.20
2022-11-18T07:33:47.451Z,0.30
2022-11-18T07:36:19.897Z,0.20
2022-11-18T07:38:46.891Z,0.30
2022-11-18T07:41:19.673Z,0.20
2022-11-18T07:43:47.505Z,0.20
2022-11-18T07:46:21.388Z,0.20
2022-11-18T07:48:50.878Z,0.20
2022-11-18T07:51:20.057Z,0.20
2022-11-18T07:53:47.110Z,0.20
2022-11-18T07:56:15.042Z,0.10
2022-11-18T07:58:42.709Z,0.20
2022-11-18T08:01:18.169Z,0.10
2022-11-18T08:03:45.827Z,0.10
2022-11-18T08:06:14.766Z,0.10
2022-11-18T08:08:42.395Z,0.00
2022-11-18T08:11:13.527Z,0.10
2022-11-18T08:13:42.985Z,0.10
2022-11-18T08:16:15.459Z,0.00
2022-11-18T08:18:42.480Z,0.00
2022-11-18T08:21:10.229Z,0.10
2022-11-18T08:23:41.733Z,0.10
2022-11-18T08:26:13.750Z,0.10
2022-11-18T08:28:44.334Z,0.10
2022-11-18T08:31:12.226Z,0.20
2022-11-18T08:33:39.435Z,0.20
2022-11-18T08:36:12.569Z,0.20
2022-11-18T08:38:39.522Z,0.30
2022-11-18T08:41:07.245Z,0.30
2022-11-18T08:43:36.775Z,0.30
2022-11-18T08:46:03.712Z,0.30
2022-11-18T08:48:30.568Z,0.30
2022-11-18T08:50:58.756Z,0.40
2022-11-18T08:53:25.897Z,0.50
2022-11-18T08:55:57.538Z,0.50
2022-11-18T08:58:25.701Z,0.60
2022-11-18T09:00:52.412Z,0.60
2022-11-18T09:03:19.697Z,0.60
2022-11-18T09:05:46.635Z,0.60
2022-11-18T09:08:16.352Z,0.60
2022-11-18T09:10:43.367Z,0.60
2022-11-18T09:13:40.362Z,0.60
2022-11-18T09:16:00.670Z,0.70
2022-11-18T09:18:27.954Z,0.70
2022-11-18T09:21:02.739Z,0.70
2022-11-18T09:23:30.912Z,0.70
2022-11-18T09:26:02.411Z,0.80
2022-11-18T09:28:30.034Z,0.80
2022-11-18T09:30:56.916Z,0.80
2022-11-18T09:33:23.928Z,0.80
2022-11-18T09:35:51.011Z,0.70
2022-11-18T09:38:17.862Z,0.80
2022-11-18T09:41:05.236Z,0.70
2022-11-18T09:43:52.834Z,0.70
2022-11-18T09:46:40.459Z,0.80
2022-11-18T09:49:26.179Z,0.70
2022-11-18T09:51:54.125Z,0.70
2022-11-18T09:54:22.672Z,0.60
2022-11-18T09:56:51.627Z,0.60
2022-11-18T09:59:21.476Z,0.50
2022-11-18T10:01:50.547Z,0.60
2022-11-18T10:04:20.036Z,0.60
2022-11-18T10:06:49.098Z,0.60
2022-11-18T10:09:37.773Z,0.60
2022-11-18T10:12:18.178Z,0.50
2022-11-18T10:15:33.745Z,0.60
2022-11-18T10:18:52.954Z,0.50
2022-11-18T10:21:34.045Z,0.50
2022-11-18T10:24:10.685Z,0.50
2022-11-18T10:26:41.972Z,0.40
2022-11-18T10:29:10.859Z,0.40
2022-11-18T10:31:59.647Z,0.50
2022-11-18T10:34:31.564Z,0.40
2022-11-18T10:37:21.248Z,0.40
2022-11-18T10:39:59.673Z,0.30
2022-11-18T10:42:37.164Z,0.30
2022-11-18T10:45:22.068Z,0.30
2022-11-18T10:48:09.070Z,0.40
2022-11-18T10:50:38.677Z,0.40
2022-11-18T10:53:25.251Z,0.40
2022-11-18T10:56:00.193Z,0.40
2022-11-18T10:58:30.214Z,0.40
2022-11-18T11:01:16.873Z,0.40
2022-11-18T11:04:04.671Z,0.50
2022-11-18T11:06:40.599Z,0.40
2022-11-18T11:09:11.198Z,0.40
2022-11-18T11:12:12.522Z,0.50
2022-11-18T11:14:57.479Z,0.50
2022-11-18T11:17:37.879Z,0.50
2022-11-18T11:20:14.861Z,0.40
2022-11-18T11:22:42.114Z,0.40
2022-11-18T11:25:18.928Z,0.40
2022-11-18T11:28:29.508Z,0.40
2022-11-18T11:31:20.428Z,0.30
2022-11-18T11:34:21.760Z,0.40
2022-11-18T11:36:48.482Z,0.50
2022-11-18T11:39:21.484Z,0.40
2022-11-18T11:42:16.892Z,0.40
2022-11-18T11:45:01.640Z,0.30
2022-11-18T11:47:56.872Z,0.30
2022-11-18T11:51:01.928Z,0.30
2022-11-18T11:53:56.660Z,0.30
2022-11-18T11:56:41.089Z,0.30
2022-11-18T11:59:25.683Z,0.30
2022-11-18T12:02:03.595Z,0.30
2022-11-18T12:04:45.180Z,0.30
2022-11-18T12:07:23.342Z,0.30
2022-11-18T12:10:15.367Z,0.30
2022-11-18T12:13:08.622Z,0.30
2022-11-18T12:15:41.558Z,0.40
2022-11-18T12:18:14.500Z,0.40
2022-11-18T12:20:47.154Z,0.30
2022-11-18T12:23:21.513Z,0.30
2022-11-18T12:25:48.236Z,0.30
2022-11-18T12:28:27.358Z,0.30
2022-11-18T12:31:19.132Z,0.30
2022-11-18T12:33:51.397Z,0.40
2022-11-18T12:36:39.402Z,0.40
2022-11-18T12:39:27.163Z,0.30
2022-11-18T12:42:19.108Z,0.40
2022-11-18T12:44:48.387Z,0.40
2022-11-18T12:47:41.042Z,0.40
2022-11-18T12:50:15.882Z,0.40
2022-11-18T12:52:42.643Z,0.40
2022-11-18T12:55:25.737Z,0.50
2022-11-18T12:57:55.200Z,0.50
2022-11-18T13:00:25.269Z,0.50
2022-11-18T13:02:56.980Z,0.50
2022-11-18T13:05:26.930Z,0.40
2022-11-18T13:08:13.432Z,0.50
2022-11-18T13:11:20.548Z,0.50
2022-11-18T13:13:47.520Z,0.50
2022-11-18T13:16:42.886Z,0.50
2022-11-18T13:19:21.855Z,0.50
2022-11-18T13:22:13.458Z,0.50
2022-11-18T13:24:51.556Z,0.50
2022-11-18T13:27:39.988Z,0.50
2022-11-18T13:30:10.522Z,0.40
2022-11-18T13:32:44.278Z,0.50
2022-11-18T13:35:20.761Z,0.50
2022-11-18T13:37:59.125Z,0.40
2022-11-18T13:40:39.102Z,0.40
2022-11-18T13:43:06.084Z,0.40
2022-11-18T13:45:34.661Z,0.40
2022-11-18T13:48:09.539Z,0.40
2022-11-18T13:50:40.811Z,0.40
2022-11-18T13:53:07.620Z,0.30
2022-11-18T13:55:39.185Z,0.40
2022-11-18T13:58:17.154Z,0.30
2022-11-18T14:00:44.809Z,0.30
2022-11-18T14:03:32.787Z,0.10
2022-11-18T14:06:02.405Z,0.10
2022-11-18T14:08:38.016Z,0.00
2022-11-18T14:11:06.525Z,-0.10
2022-11-18T14:13:35.949Z,-0.10
2022-11-18T14:16:24.098Z,-0.20
2022-11-18T14:18:51.973Z,-0.30
2022-11-18T14:21:32.512Z,-0.30
2022-11-18T14:24:00.359Z,-0.40
2022-11-18T14:26:33.154Z,-0.40
2022-11-18T14:29:02.850Z,-0.40
2022-11-18T14:31:31.654Z,-0.50
2022-11-18T14:34:16.057Z,-0.60
2022-11-18T14:36:43.462Z,-0.60
2022-11-18T14:39:26.296Z,-0.70
2022-11-18T14:41:54.665Z,-0.70
2022-11-18T14:44:24.309Z,-0.70
2022-11-18T14:47:26.054Z,-0.70
2022-11-18T14:49:52.963Z,-0.60
2022-11-18T14:52:19.880Z,-0.70
2022-11-18T14:54:46.751Z,-0.80
2022-11-18T14:57:17.587Z,-0.80
2022-11-18T14:59:44.995Z,-0.90
2022-11-18T15:02:16.705Z,-0.90
2022-11-18T15:04:43.793Z,-1.00
2022-11-18T15:07:23.171Z,-1.00
2022-11-18T15:09:51.026Z,-1.10
2022-11-18T15:12:17.994Z,-1.10
2022-11-18T15:14:44.895Z,-1.10
2022-11-18T15:17:13.646Z,-1.20
2022-11-18T15:19:43.551Z,-1.20
2022-11-18T15:22:10.401Z,-1.30
2022-11-18T15:24:37.302Z,-1.40
2022-11-18T15:27:05.426Z,-1.40
2022-11-18T15:29:32.348Z,-1.40
2022-11-18T15:31:59.979Z,-1.50
2022-11-18T15:34:26.874Z,-1.50
2022-11-18T15:36:53.785Z,-1.60
2022-11-18T15:39:20.655Z,-1.50
2022-11-18T15:41:47.445Z,-1.50
2022-11-18T15:44:14.234Z,-1.60
2022-11-18T15:46:41.753Z,-1.60
2022-11-18T15:49:13.781Z,-1.70
2022-11-18T15:51:41.033Z,-1.70
2022-11-18T15:54:07.745Z,-1.70
2022-11-18T15:56:35.100Z,-1.80
2022-11-18T15:59:02.967Z,-1.80
2022-11-18T16:01:32.564Z,-1.80
2022-11-18T16:03:59.887Z,-1.90
2022-11-18T16:06:27.092Z,-2.00
2022-11-18T16:08:59.495Z,-2.10
2022-11-18T16:11:47.117Z,-2.10
2022-11-18T16:14:17.423Z,-2.10
2022-11-18T16:16:45.768Z,-2.10
2022-11-18T16:19:13.660Z,-2.10
2022-11-18T16:21:43.370Z,-2.20
2022-11-18T16:24:16.371Z,-2.30
2022-11-18T16:26:43.921Z,-2.30
2022-11-18T16:29:12.003Z,-2.30
2022-11-18T16:31:46.835Z,-2.30
2022-11-18T16:34:25.281Z,-2.40
2022-11-18T16:36:54.992Z,-2.30
2022-11-18T16:39:25.021Z,-2.30
2022-11-18T16:41:54.536Z,-2.40
2022-11-18T16:44:21.688Z,-2.40
2022-11-18T16:46:57.778Z,-2.50
2022-11-18T16:49:26.381Z,-2.60
2022-11-18T16:51:55.108Z,-2.70
2022-11-18T16:54:30.004Z,-2.70
2022-11-18T16:56:58.977Z,-2.70
2022-11-18T16:59:28.058Z,-2.70
2022-11-18T17:01:56.670Z,-2.70
2022-11-18T17:04:25.449Z,-2.90
2022-11-18T17:06:52.473Z,-2.90
2022-11-18T17:09:22.011Z,-3.00
2022-11-18T17:11:50.199Z,-3.00
2022-11-18T17:14:17.123Z,-3.00
2022-11-18T17:16:44.066Z,-3.00
2022-11-18T17:19:26.552Z,-3.10
2022-11-18T17:21:54.101Z,-3.20
2022-11-18T17:24:22.913Z,-3.20
2022-11-18T17:26:51.959Z,-3.20
2022-11-18T17:29:19.032Z,-3.20
2022-11-18T17:31:46.098Z,-3.10
2022-11-18T17:34:14.662Z,-3.30
2022-11-18T17:36:42.381Z,-3.30
2022-11-18T17:39:10.934Z,-3.30
2022-11-18T17:41:57.234Z,-3.20
2022-11-18T17:44:24.679Z,-3.30
2022-11-18T17:46:51.524Z,-3.40
2022-11-18T17:49:21.287Z,-3.40
2022-11-18T17:51:48.564Z,-3.40
2022-11-18T17:54:20.163Z,-3.40
2022-11-18T17:56:47.410Z,-3.50
2022-11-18T17:59:15.711Z,-3.60
2022-11-18T18:01:42.691Z,-3.60
2022-11-18T18:04:09.955Z,-3.60
2022-11-18T18:06:36.769Z,-3.60
2022-11-18T18:09:04.149Z,-3.60
2022-11-18T18:11:30.926Z,-3.60
2022-11-18T18:14:12.917Z,-3.70
2022-11-18T18:16:50.160Z,-3.70
2022-11-18T18:19:19.565Z,-3.80
2022-11-18T18:21:47.014Z,-3.80
2022-11-18T18:24:19.504Z,-3.80
2022-11-18T18:26:46.956Z,-3.90
2022-11-18T18:29:14.047Z,-3.90
2022-11-18T18:31:40.953Z,-3.90
2022-11-18T18:34:07.864Z,-4.00
2022-11-18T18:36:35.042Z,-4.10
2022-11-18T18:39:02.812Z,-4.00
2022-11-18T18:41:29.706Z,-4.00
2022-11-18T18:43:56.701Z,-4.00
2022-11-18T18:46:36.563Z,-4.10
2022-11-18T18:49:11.718Z,-4.00
2022-11-18T18:51:39.952Z,-4.00
2022-11-18T18:54:09.868Z,-4.10
2022-11-18T18:56:38.421Z,-4.20
2022-11-18T18:59:08.680Z,-4.30
2022-11-18T19:01:37.981Z,-4.20
2022-11-18T19:04:07.108Z,-4.30
2022-11-18T19:09:23.417Z,-4.30
2022-11-18T19:12:09.201Z,-4.30
2022-11-18T19:14:36.422Z,-4.30
2022-11-18T19:17:09.478Z,-4.30
2022-11-18T19:19:57.460Z,-4.30
2022-11-18T19:22:25.260Z,-4.40
2022-11-18T19:24:52.539Z,-4.40
2022-11-18T19:27:22.801Z,-4.40
2022-11-18T19:29:49.707Z,-4.50
2022-11-18T19:32:16.990Z,-4.40
2022-11-18T19:34:44.691Z,-4.40
2022-11-18T19:37:12.381Z,-4.40
2022-11-18T19:39:39.303Z,-4.50
2022-11-18T19:42:06.279Z,-4.50
2022-11-18T19:44:33.074Z,-4.50
2022-11-18T19:47:00.919Z,-4.50
2022-11-18T19:49:27.769Z,-4.50
2022-11-18T19:51:54.563Z,-4.70
2022-11-18T19:54:21.553Z,-4.70
2022-11-18T19:56:48.383Z,-4.70
2022-11-18T19:59:15.239Z,-4.70
2022-11-18T20:01:42.262Z,-4.60
2022-11-18T20:04:09.143Z,-4.70
2022-11-18T20:06:40.124Z,-4.70
2022-11-18T20:09:08.524Z,-4.80
2022-11-18T20:11:36.312Z,-4.80
2022-11-18T20:14:03.106Z,-4.90
2022-11-18T20:16:30.195Z,-4.80
2022-11-18T20:19:03.781Z,-4.70
2022-11-18T20:21:35.251Z,-4.70
2022-11-18T20:24:03.851Z,-4.70
2022-11-18T20:26:36.649Z,-4.80
2022-11-18T20:29:04.428Z,-4.80
2022-11-18T20:31:33.903Z,-4.80
2022-11-18T20:34:01.357Z,-4.90
2022-11-18T20:36:33.846Z,-4.90
2022-11-18T20:39:03.842Z,-5.00
2022-11-18T20:41:31.709Z,-5.00
2022-11-18T20:43:59.786Z,-4.90
2022-11-18T20:46:27.050Z,-4.80
2022-11-18T20:48:54.495Z,-4.80
2022-11-18T20:51:23.797Z,-4.80
2022-11-18T20:53:51.825Z,-4.80
2022-11-18T20:56:20.753Z,-4.70
2022-11-18T20:58:48.464Z,-4.60
2022-11-18T21:01:17.826Z,-4.60
2022-11-18T21:03:51.628Z,-4.60
2022-11-18T21:06:18.743Z,-4.60
2022-11-18T21:08:45.516Z,-4.60
2022-11-18T21:11:13.713Z,-4.70
2022-11-18T21:13:59.924Z,-4.80
2022-11-18T21:16:27.680Z,-4.70
2022-11-18T21:18:54.581Z,-4.80
2022-11-18T21:21:40.121Z,-4.90
2022-11-18T21:24:07.332Z,-4.90
2022-11-18T21:26:38.756Z,-4.90
2022-11-18T21:29:07.998Z,-4.90
2022-11-18T21:31:35.342Z,-4.90
2022-11-18T21:34:02.765Z,-4.90
2022-11-18T21:36:29.976Z,-4.90
2022-11-18T21:38:58.871Z,-4.90
2022-11-18T21:41:26.911Z,-5.00
2022-11-18T21:44:09.487Z,-5.00
2022-11-18T21:46:40.007Z,-5.10
2022-11-18T21:49:08.078Z,-5.20
2022-11-18T21:51:35.759Z,-5.10
2022-11-18T21:54:02.892Z,-5.20
2022-11-18T21:56:31.104Z,-5.20
2022-11-18T21:59:00.318Z,-5.20
2022-11-18T22:01:33.565Z,-5.20
2022-11-18T22:04:03.263Z,-5.30
2022-11-18T22:06:33.538Z,-5.30
2022-11-18T22:09:01.966Z,-5.20
2022-11-18T22:11:28.962Z,-5.30
2022-11-18T22:13:56.034Z,-5.30
2022-11-18T22:16:27.473Z,-5.20
2022-11-18T22:19:03.622Z,-5.30
2022-11-18T22:21:33.617Z,-5.30
2022-11-18T22:24:01.077Z,-5.30
2022-11-18T22:26:29.072Z,-5.40
2022-11-18T22:28:56.644Z,-5.40
2022-11-18T22:31:24.721Z,-5.50
2022-11-18T22:33:52.115Z,-5.40
2022-11-18T22:36:21.173Z,-5.30
2022-11-18T22:38:48.523Z,-5.40
2022-11-18T22:41:39.807Z,-5.40
2022-11-18T22:44:08.553Z,-5.40
2022-11-18T22:46:42.880Z,-5.30
2022-11-18T22:49:11.657Z,-5.30
2022-11-18T22:51:39.327Z,-5.30
2022-11-18T22:56:54.100Z,-5.40
2022-11-18T22:59:21.654Z,-5.30
2022-11-18T23:01:50.485Z,-5.30
2022-11-18T23:04:17.424Z,-5.40
2022-11-18T23:06:44.184Z,-5.50
2022-11-18T23:09:11.053Z,-5.50
2022-11-18T23:11:56.554Z,-5.50
2022-11-18T23:14:23.340Z,-5.50
2022-11-18T23:16:50.215Z,-5.50
2022-11-18T23:19:17.957Z,-5.50
2022-11-18T23:21:45.873Z,-5.60
2022-11-18T23:24:18.253Z,-5.60
2022-11-18T23:26:46.238Z,-5.60
2022-11-18T23:29:15.891Z,-5.70
2022-11-18T23:31:44.548Z,-5.70
2022-11-18T23:34:13.277Z,-5.70
2022-11-18T23:36:40.486Z,-5.70
2022-11-18T23:39:07.706Z,-5.70
2022-11-18T23:41:37.117Z,-5.70
2022-11-18T23:44:04.933Z,-5.70
2022-11-18T23:46:31.939Z,-5.70
2022-11-18T23:49:02.189Z,-5.70
2022-11-18T23:51:28.981Z,-5.70
2022-11-18T23:53:57.158Z,-5.70
2022-11-18T23:56:27.687Z,-5.60
2022-11-18T23:58:56.700Z,-5.70
